createdAt,value
2019-05-13T00:02:07.301Z,9.73
2019-05-13T00:04:34.229Z,10.10
2019-05-13T00:07:04.372Z,11.78
2019-05-13T00:09:30.384Z,10.78
2019-05-13T00:11:57.187Z,10.53
2019-05-13T00:14:24.086Z,10.80
2019-05-13T00:16:53.482Z,9.03
2019-05-13T00:19:19.651Z,10.80
2019-05-13T00:21:47.171Z,9.53
2019-05-13T00:24:14.059Z,9.68
2019-05-13T00:26:41.259Z,9.48
2019-05-13T00:29:08.047Z,9.23
2019-05-13T00:31:35.136Z,9.60
2019-05-13T00:34:03.666Z,9.58
2019-05-13T00:36:30.908Z,9.88
2019-05-13T00:38:57.983Z,9.35
2019-05-13T00:41:25.726Z,9.60
2019-05-13T00:43:53.259Z,8.85
2019-05-13T00:46:20.649Z,9.10
2019-05-13T00:48:47.639Z,8.25
2019-05-13T00:51:14.459Z,8.75
2019-05-13T00:53:44.056Z,8.15
2019-05-13T00:56:10.802Z,8.73
2019-05-13T00:58:38.246Z,8.28
2019-05-13T01:01:05.310Z,9.50
2019-05-13T01:03:33.842Z,8.20
2019-05-13T01:06:01.045Z,8.10
2019-05-13T01:08:27.995Z,7.90
2019-05-13T01:10:55.101Z,7.58
2019-05-13T01:13:23.768Z,7.78
2019-05-13T01:15:51.486Z,8.53
2019-05-13T01:18:18.778Z,9.15
2019-05-13T01:20:46.014Z,9.78
2019-05-13T01:23:14.116Z,9.60
2019-05-13T01:25:44.242Z,9.50
2019-05-13T01:28:13.462Z,8.78
2019-05-13T01:30:43.643Z,7.40
2019-05-13T01:33:11.483Z,7.55
2019-05-13T01:35:38.588Z,8.68
2019-05-13T01:38:07.027Z,8.78
2019-05-13T01:40:34.927Z,8.95
2019-05-13T01:43:03.537Z,8.23
2019-05-13T01:45:33.774Z,8.63
2019-05-13T01:48:01.440Z,7.50
2019-05-13T01:50:28.693Z,6.78
2019-05-13T01:52:56.198Z,7.25
2019-05-13T01:55:24.472Z,6.87
2019-05-13T01:57:53.323Z,6.55
2019-05-13T02:00:20.828Z,7.53
2019-05-13T02:02:48.230Z,6.60
2019-05-13T02:05:15.736Z,7.25
2019-05-13T02:07:56.520Z,6.20
2019-05-13T02:10:14.556Z,6.05
2019-05-13T02:12:44.656Z,4.62
2019-05-13T02:15:14.316Z,5.40
2019-05-13T02:17:44.585Z,5.17
2019-05-13T02:20:14.781Z,4.42
2019-05-13T02:22:43.791Z,4.00
2019-05-13T02:25:13.762Z,3.02
2019-05-13T02:27:43.659Z,2.90
2019-05-13T02:30:11.014Z,3.00
2019-05-13T02:32:38.166Z,2.70
2019-05-13T02:35:05.660Z,2.83
2019-05-13T02:37:34.250Z,2.40
2019-05-13T02:40:03.437Z,2.10
2019-05-13T02:42:32.784Z,1.95
2019-05-13T02:45:03.777Z,2.27
2019-05-13T02:47:32.850Z,2.55
2019-05-13T02:50:01.815Z,2.30
2019-05-13T02:52:27.817Z,2.20
2019-05-13T02:54:55.141Z,2.22
2019-05-13T02:57:23.384Z,2.45
2019-05-13T02:59:52.631Z,2.25
2019-05-13T03:02:22.481Z,2.77
2019-05-13T03:04:52.087Z,3.90
2019-05-13T03:07:18.229Z,4.85
2019-05-13T03:09:45.609Z,5.97
2019-05-13T03:12:13.309Z,6.78
2019-05-13T03:14:47.502Z,5.97
2019-05-13T03:17:28.913Z,5.75
2019-05-13T03:19:56.008Z,4.75
2019-05-13T03:22:23.123Z,4.17
2019-05-13T03:24:52.308Z,4.47
2019-05-13T03:27:20.522Z,5.03
2019-05-13T03:29:48.364Z,5.53
2019-05-13T03:32:17.609Z,7.12
2019-05-13T03:34:46.107Z,7.30
2019-05-13T03:37:15.656Z,8.08
2019-05-13T03:39:43.582Z,8.45
2019-05-13T03:42:12.389Z,7.67
2019-05-13T03:44:42.787Z,7.15
2019-05-13T03:47:12.750Z,5.37
2019-05-13T03:49:42.517Z,4.62
2019-05-13T03:52:13.465Z,3.87
2019-05-13T03:54:43.356Z,3.72
2019-05-13T03:57:12.593Z,3.08
2019-05-13T03:59:39.174Z,2.70
2019-05-13T04:02:06.399Z,2.75
2019-05-13T04:04:33.399Z,2.83
2019-05-13T04:07:02.684Z,3.47
2019-05-13T04:09:35.724Z,4.12
2019-05-13T04:12:03.217Z,5.50
2019-05-13T04:14:29.342Z,5.55
2019-05-13T04:16:57.407Z,6.67
2019-05-13T04:19:24.619Z,7.55
2019-05-13T04:21:52.835Z,6.80
2019-05-13T04:24:22.899Z,6.40
2019-05-13T04:26:49.425Z,6.05
2019-05-13T04:29:16.625Z,6.78
2019-05-13T04:31:43.540Z,5.65
2019-05-13T04:34:12.392Z,5.35
2019-05-13T04:36:42.782Z,5.37
2019-05-13T04:39:08.778Z,4.42
2019-05-13T04:41:37.170Z,4.08
2019-05-13T04:44:04.438Z,4.60
2019-05-13T04:46:32.725Z,6.67
2019-05-13T04:49:02.238Z,7.97
2019-05-13T04:51:32.845Z,8.20
2019-05-13T04:54:02.568Z,8.18
2019-05-13T04:56:28.600Z,8.53
2019-05-13T04:58:55.895Z,8.23
2019-05-13T05:01:59.319Z,7.47
2019-05-13T05:04:53.515Z,8.10
2019-05-13T05:07:42.963Z,9.15
2019-05-13T05:11:07.995Z,9.73
2019-05-13T05:13:53.097Z,7.80
2019-05-13T05:16:58.372Z,6.60
2019-05-13T05:20:03.200Z,6.35
2019-05-13T05:23:11.262Z,6.80
2019-05-13T05:26:01.167Z,6.83
2019-05-13T05:29:02.175Z,6.80
2019-05-13T05:32:01.960Z,7.67
2019-05-13T05:34:53.696Z,7.00
2019-05-13T05:37:47.838Z,7.35
2019-05-13T05:40:31.086Z,7.92
2019-05-13T05:42:48.116Z,7.75
2019-05-13T05:45:15.813Z,7.28
2019-05-13T05:47:44.046Z,6.17
2019-05-13T05:50:12.207Z,8.20
2019-05-13T05:52:42.155Z,8.23
2019-05-13T05:55:11.293Z,13.40
2019-05-13T05:57:41.948Z,33.53
2019-05-13T06:00:11.505Z,11.80
2019-05-13T06:02:42.736Z,8.03
2019-05-13T06:05:12.514Z,13.48
2019-05-13T06:07:42.166Z,12.50
2019-05-13T06:10:11.483Z,30.62
2019-05-13T06:12:42.170Z,23.57
2019-05-13T06:15:12.333Z,18.95
2019-05-13T06:17:41.309Z,13.75
2019-05-13T06:20:09.203Z,9.95
2019-05-13T06:22:36.489Z,21.00
2019-05-13T06:25:05.563Z,16.70
2019-05-13T06:27:32.379Z,23.98
2019-05-13T06:30:02.332Z,20.02
2019-05-13T06:32:31.399Z,23.90
2019-05-13T06:35:02.154Z,29.02
2019-05-13T06:37:28.255Z,13.70
2019-05-13T06:39:55.291Z,12.35
2019-05-13T06:42:22.538Z,12.73
2019-05-13T06:44:51.418Z,15.15
2019-05-13T06:47:18.606Z,16.65
2019-05-13T06:49:45.856Z,13.15
2019-05-13T06:52:12.893Z,11.85
2019-05-13T06:54:41.832Z,12.80
2019-05-13T06:57:13.148Z,15.70
2019-05-13T06:59:38.450Z,16.15
2019-05-13T07:02:05.669Z,16.73
2019-05-13T07:04:33.000Z,13.25
2019-05-13T07:07:09.825Z,14.60
2019-05-13T07:09:32.013Z,15.53
2019-05-13T07:11:58.513Z,18.17
2019-05-13T07:14:25.777Z,26.48
2019-05-13T07:16:52.863Z,34.60
2019-05-13T07:19:19.867Z,40.48
2019-05-13T07:21:46.967Z,30.05
2019-05-13T07:24:14.082Z,21.33
2019-05-13T07:26:41.909Z,19.95
2019-05-13T07:29:12.440Z,15.03
2019-05-13T07:31:38.195Z,14.85
2019-05-13T07:34:05.766Z,12.73
2019-05-13T07:36:33.034Z,12.10
2019-05-13T07:39:01.814Z,10.28
2019-05-13T07:41:36.526Z,10.72
2019-05-13T07:43:59.420Z,16.37
2019-05-13T07:46:26.577Z,14.20
2019-05-13T07:48:53.647Z,20.70
2019-05-13T07:51:22.217Z,23.60
2019-05-13T07:53:51.616Z,29.57
2019-05-13T07:56:18.323Z,19.20
2019-05-13T07:58:45.783Z,12.45
2019-05-13T08:01:12.895Z,10.43
2019-05-13T08:03:42.190Z,10.58
2019-05-13T08:06:10.864Z,11.48
2019-05-13T08:08:41.489Z,22.55
2019-05-13T08:11:07.828Z,22.75
2019-05-13T08:13:35.155Z,19.20
2019-05-13T08:16:02.338Z,10.85
2019-05-13T08:18:31.874Z,9.65
2019-05-13T08:20:58.729Z,17.87
2019-05-13T08:23:26.904Z,28.55
2019-05-13T08:25:54.195Z,9.88
2019-05-13T08:28:22.605Z,12.25
2019-05-13T08:30:51.824Z,11.50
2019-05-13T08:33:19.395Z,13.95
2019-05-13T08:35:46.963Z,20.68
2019-05-13T08:38:15.443Z,22.73
2019-05-13T08:40:42.762Z,27.75
2019-05-13T08:43:12.092Z,39.92
2019-05-13T08:45:42.043Z,19.37
2019-05-13T08:48:12.449Z,13.48
2019-05-13T08:50:41.634Z,12.13
2019-05-13T08:53:08.115Z,43.23
2019-05-13T08:55:35.151Z,24.57
2019-05-13T08:58:02.326Z,6.35
2019-05-13T09:00:47.393Z,23.12
2019-05-13T09:03:16.197Z,31.55
2019-05-13T09:05:43.697Z,14.33
2019-05-13T09:08:11.789Z,9.30
2019-05-13T09:10:41.213Z,8.38
2019-05-13T09:13:07.911Z,11.38
2019-05-13T09:15:35.134Z,14.33
2019-05-13T09:18:02.557Z,24.67
2019-05-13T09:20:32.190Z,16.17
2019-05-13T09:22:59.135Z,13.58
2019-05-13T09:25:26.250Z,18.35
2019-05-13T09:27:53.306Z,14.23
2019-05-13T09:30:22.296Z,30.95
2019-05-13T09:32:51.410Z,17.20
2019-05-13T09:35:18.446Z,11.97
2019-05-13T09:37:45.602Z,12.25
2019-05-13T09:40:12.899Z,10.00
2019-05-13T09:42:49.164Z,10.58
2019-05-13T09:45:12.093Z,13.80
2019-05-13T09:47:38.632Z,12.15
2019-05-13T09:50:06.535Z,13.70
2019-05-13T09:52:33.670Z,10.18
2019-05-13T09:55:03.037Z,6.45
2019-05-13T09:57:32.195Z,7.08
2019-05-13T10:00:01.787Z,8.73
2019-05-13T10:02:28.802Z,8.45
2019-05-13T10:04:56.315Z,9.55
2019-05-13T10:07:23.359Z,10.08
2019-05-13T10:09:52.055Z,10.55
2019-05-13T10:12:23.810Z,14.13
2019-05-13T10:14:48.988Z,12.90
2019-05-13T10:17:16.870Z,7.60
2019-05-13T10:19:43.994Z,7.60
2019-05-13T10:22:12.186Z,9.63
2019-05-13T10:24:42.229Z,8.90
2019-05-13T10:27:12.234Z,9.88
2019-05-13T10:29:42.179Z,6.70
2019-05-13T10:32:08.588Z,10.05
2019-05-13T10:34:35.919Z,16.95
2019-05-13T10:37:03.130Z,13.50
2019-05-13T10:39:30.794Z,7.78
2019-05-13T10:41:58.003Z,8.88
2019-05-13T10:44:25.267Z,8.65
2019-05-13T10:46:52.437Z,7.15
2019-05-13T10:49:22.067Z,7.37
2019-05-13T10:51:49.217Z,7.72
2019-05-13T10:54:16.222Z,8.80
2019-05-13T10:56:44.856Z,6.83
2019-05-13T10:59:12.787Z,7.35
2019-05-13T11:01:42.690Z,8.30
2019-05-13T11:04:13.297Z,7.75
2019-05-13T11:06:37.999Z,7.17
2019-05-13T11:09:08.130Z,6.35
2019-05-13T11:11:35.345Z,7.80
2019-05-13T11:14:10.817Z,9.55
2019-05-13T11:16:32.443Z,10.60
2019-05-13T11:19:02.524Z,7.40
2019-05-13T11:21:28.944Z,7.30
2019-05-13T11:23:56.039Z,7.00
2019-05-13T11:26:23.580Z,7.87
2019-05-13T11:28:52.107Z,7.72
2019-05-13T11:31:22.452Z,8.60
2019-05-13T11:33:51.794Z,7.60
2019-05-13T11:36:19.222Z,9.23
2019-05-13T11:38:46.987Z,8.43
2019-05-13T11:41:14.148Z,9.25
2019-05-13T11:43:41.633Z,8.03
2019-05-13T11:46:08.839Z,9.23
2019-05-13T11:48:36.144Z,8.33
2019-05-13T11:51:04.411Z,8.38
2019-05-13T11:53:34.544Z,7.37
2019-05-13T11:56:03.584Z,6.40
2019-05-13T11:58:30.109Z,6.60
2019-05-13T12:01:02.665Z,7.92
2019-05-13T12:03:32.152Z,6.90
2019-05-13T12:05:58.639Z,5.50
2019-05-13T12:08:26.088Z,7.20
2019-05-13T12:10:54.644Z,5.50
2019-05-13T12:13:23.213Z,5.92
2019-05-13T12:15:53.887Z,8.25
2019-05-13T12:18:23.402Z,7.05
2019-05-13T12:20:49.329Z,6.55
2019-05-13T12:23:16.740Z,6.90
2019-05-13T12:25:44.149Z,7.22
2019-05-13T12:28:11.590Z,8.33
2019-05-13T12:30:41.805Z,7.28
2019-05-13T12:33:08.772Z,6.55
2019-05-13T12:35:35.948Z,8.83
2019-05-13T12:38:03.375Z,8.35
2019-05-13T12:40:33.743Z,6.05
2019-05-13T12:43:01.956Z,5.70
2019-05-13T12:45:29.664Z,6.62
2019-05-13T12:47:56.792Z,6.25
2019-05-13T12:50:24.887Z,6.87
2019-05-13T12:52:52.239Z,6.97
2019-05-13T12:55:21.748Z,7.53
2019-05-13T12:57:48.838Z,7.70
2019-05-13T13:00:17.384Z,7.37
2019-05-13T13:02:50.369Z,6.50
2019-05-13T13:05:19.924Z,9.00
2019-05-13T13:07:43.225Z,7.45
2019-05-13T13:10:14.725Z,6.92
2019-05-13T13:12:42.224Z,7.70
2019-05-13T13:15:33.072Z,8.65
2019-05-13T13:17:38.497Z,6.30
2019-05-13T13:20:09.591Z,7.42
2019-05-13T13:22:36.016Z,8.68
2019-05-13T13:25:06.046Z,9.25
2019-05-13T13:28:00.030Z,7.20
2019-05-13T13:30:08.463Z,6.30
2019-05-13T13:32:34.737Z,8.03
2019-05-13T13:35:03.708Z,7.42
2019-05-13T13:37:34.993Z,7.75
2019-05-13T13:40:03.432Z,9.05
2019-05-13T13:42:33.031Z,7.47
2019-05-13T13:44:59.388Z,9.38
2019-05-13T13:47:26.907Z,9.50
2019-05-13T13:49:54.263Z,8.88
2019-05-13T13:52:22.817Z,12.88
2019-05-13T13:54:58.950Z,7.78
2019-05-13T13:57:19.115Z,7.60
2019-05-13T14:00:16.238Z,10.68
2019-05-13T14:02:15.859Z,20.27
2019-05-13T14:04:43.350Z,17.57
2019-05-13T14:07:27.750Z,10.95
2019-05-13T14:09:40.221Z,13.90
2019-05-13T14:12:07.637Z,18.05
2019-05-13T14:14:34.706Z,12.68
2019-05-13T14:17:18.285Z,10.40
2019-05-13T14:19:45.391Z,13.62
2019-05-13T14:22:12.823Z,13.90
2019-05-13T14:24:42.316Z,16.42
2019-05-13T14:27:08.871Z,15.08
2019-05-13T14:29:40.658Z,13.05
2019-05-13T14:32:05.079Z,12.98
2019-05-13T14:34:32.310Z,22.55
2019-05-13T14:37:01.144Z,34.05
2019-05-13T14:39:31.344Z,36.38
2019-05-13T14:41:58.470Z,39.00
2019-05-13T14:44:25.525Z,40.60
2019-05-13T14:46:52.575Z,27.67
2019-05-13T14:49:22.269Z,26.55
2019-05-13T14:51:48.706Z,45.30
2019-05-13T14:54:16.035Z,30.75
2019-05-13T14:56:43.250Z,17.27
2019-05-13T14:59:11.654Z,28.50
2019-05-13T15:01:41.187Z,29.85
2019-05-13T15:04:08.393Z,55.60
2019-05-13T15:06:35.407Z,113.32
2019-05-13T15:09:05.158Z,130.78
2019-05-13T15:11:32.528Z,121.30
2019-05-13T15:14:02.471Z,45.20
2019-05-13T15:16:31.217Z,26.23
2019-05-13T15:18:58.379Z,47.98
2019-05-13T15:21:25.733Z,53.28
2019-05-13T15:23:52.731Z,36.93
2019-05-13T15:26:22.043Z,11.38
2019-05-13T15:28:48.838Z,10.53
2019-05-13T15:31:18.122Z,13.13
2019-05-13T15:33:45.136Z,18.27
2019-05-13T15:36:12.189Z,26.70
2019-05-13T15:38:41.242Z,29.98
2019-05-13T15:41:08.029Z,132.32
2019-05-13T15:43:35.050Z,297.05
2019-05-13T15:46:02.992Z,431.35
2019-05-13T15:48:31.523Z,321.05
2019-05-13T15:51:01.507Z,276.73
2019-05-13T15:53:28.174Z,298.80
2019-05-13T15:55:55.101Z,63.33
2019-05-13T15:58:38.053Z,48.70
2019-05-13T16:00:52.321Z,81.75
2019-05-13T16:03:19.698Z,62.93
2019-05-13T16:05:46.881Z,46.28
2019-05-13T16:08:13.963Z,33.73
2019-05-13T16:10:41.923Z,29.48
2019-05-13T16:13:11.663Z,32.65
2019-05-13T16:15:38.298Z,25.12
2019-05-13T16:18:05.471Z,47.53
2019-05-13T16:20:32.999Z,66.45
2019-05-13T16:23:02.434Z,46.25
2019-05-13T16:25:29.224Z,37.93
2019-05-13T16:27:56.363Z,35.68
2019-05-13T16:30:23.521Z,29.92
2019-05-13T16:32:52.152Z,24.18
2019-05-13T16:35:21.518Z,21.48
2019-05-13T16:37:48.597Z,20.68
2019-05-13T16:40:15.839Z,15.80
2019-05-13T16:42:43.501Z,28.15
2019-05-13T16:45:12.477Z,37.28
2019-05-13T16:47:55.804Z,46.73
2019-05-13T16:50:11.466Z,28.20
2019-05-13T16:52:38.787Z,30.82
2019-05-13T16:55:06.592Z,34.58
2019-05-13T16:57:33.601Z,34.95
2019-05-13T17:00:02.491Z,23.87
2019-05-13T17:02:29.626Z,28.38
2019-05-13T17:04:56.527Z,24.37
2019-05-13T17:07:23.719Z,9.48
2019-05-13T17:09:52.208Z,14.50
2019-05-13T17:12:21.156Z,73.70
2019-05-13T17:14:48.387Z,98.15
2019-05-13T17:17:15.553Z,37.98
2019-05-13T17:19:42.452Z,25.97
2019-05-13T17:22:09.713Z,30.57
2019-05-13T17:24:36.611Z,25.37
2019-05-13T17:27:03.615Z,15.43
2019-05-13T17:29:31.688Z,20.90
2019-05-13T17:31:59.056Z,15.25
2019-05-13T17:34:26.229Z,29.05
2019-05-13T17:36:53.367Z,37.80
2019-05-13T17:39:21.345Z,33.98
2019-05-13T17:41:48.313Z,23.75
2019-05-13T17:44:15.307Z,61.00
2019-05-13T17:46:42.160Z,31.42
2019-05-13T17:49:11.575Z,31.85
2019-05-13T17:51:38.151Z,38.53
2019-05-13T17:54:05.446Z,26.33
2019-05-13T17:56:32.447Z,27.90
2019-05-13T17:58:59.525Z,20.15
2019-05-13T18:01:26.579Z,44.83
2019-05-13T18:03:53.568Z,46.13
2019-05-13T18:06:21.048Z,40.38
2019-05-13T18:08:48.336Z,29.77
2019-05-13T18:11:15.705Z,20.80
2019-05-13T18:13:43.710Z,21.30
2019-05-13T18:16:12.553Z,11.03
2019-05-13T18:18:46.756Z,10.43
2019-05-13T18:21:08.915Z,15.55
2019-05-13T18:23:35.866Z,9.38
2019-05-13T18:26:03.492Z,8.60
2019-05-13T18:28:31.594Z,10.38
2019-05-13T18:30:58.922Z,12.25
2019-05-13T18:33:26.127Z,18.95
2019-05-13T18:35:53.148Z,18.02
2019-05-13T18:38:21.111Z,17.48
2019-05-13T18:40:48.341Z,16.35
2019-05-13T18:43:15.772Z,14.55
2019-05-13T18:45:42.677Z,12.68
2019-05-13T18:48:12.082Z,14.20
2019-05-13T18:50:38.594Z,13.75
2019-05-13T18:53:05.678Z,13.13
2019-05-13T18:55:32.612Z,15.38
2019-05-13T18:58:01.056Z,16.12
2019-05-13T19:00:28.387Z,16.60
2019-05-13T19:02:55.603Z,17.23
2019-05-13T19:05:22.610Z,15.60
2019-05-13T19:07:51.262Z,14.87
2019-05-13T19:10:18.728Z,16.10
2019-05-13T19:12:46.083Z,14.15
2019-05-13T19:15:15.299Z,15.45
2019-05-13T19:17:42.854Z,14.23
2019-05-13T19:20:11.626Z,14.58
2019-05-13T19:22:41.285Z,13.43
2019-05-13T19:25:08.856Z,16.45
2019-05-13T19:27:35.817Z,16.15
2019-05-13T19:30:05.039Z,16.35
2019-05-13T19:32:32.481Z,12.70
2019-05-13T19:35:02.404Z,13.70
2019-05-13T19:37:28.751Z,17.10
2019-05-13T19:39:55.965Z,17.48
2019-05-13T19:42:24.012Z,19.30
2019-05-13T19:44:51.256Z,21.37
2019-05-13T19:47:19.161Z,18.07
2019-05-13T19:49:46.841Z,14.55
2019-05-13T19:52:21.374Z,13.03
2019-05-13T19:54:48.667Z,10.48
2019-05-13T19:57:21.115Z,9.93
2019-05-13T19:59:47.556Z,7.30
2019-05-13T20:02:14.668Z,10.43
2019-05-13T20:04:42.000Z,11.57
2019-05-13T20:07:11.527Z,12.65
2019-05-13T20:09:38.760Z,13.40
2019-05-13T20:12:05.971Z,12.75
2019-05-13T20:14:33.093Z,13.58
2019-05-13T20:17:01.586Z,11.85
2019-05-13T20:19:42.735Z,11.03
2019-05-13T20:21:58.065Z,11.53
2019-05-13T20:24:25.248Z,10.65
2019-05-13T20:26:53.995Z,14.25
2019-05-13T20:29:21.582Z,15.88
2019-05-13T20:31:48.577Z,12.25
2019-05-13T20:34:15.876Z,15.20
2019-05-13T20:36:43.299Z,13.20
2019-05-13T20:39:11.589Z,14.30
2019-05-13T20:41:41.255Z,13.62
2019-05-13T20:44:08.551Z,10.38
2019-05-13T20:46:35.816Z,10.93
2019-05-13T20:49:03.298Z,12.00
2019-05-13T20:51:31.305Z,12.37
2019-05-13T20:53:58.512Z,10.58
2019-05-13T20:56:25.677Z,10.23
2019-05-13T20:58:52.940Z,10.23
2019-05-13T21:01:20.189Z,12.20
2019-05-13T21:03:47.688Z,11.53
2019-05-13T21:06:15.335Z,12.75
2019-05-13T21:08:42.227Z,10.65
2019-05-13T21:11:11.366Z,9.78
2019-05-13T21:13:38.211Z,10.30
2019-05-13T21:16:05.214Z,10.70
2019-05-13T21:18:32.612Z,11.18
2019-05-13T21:21:01.017Z,11.12
2019-05-13T21:23:28.003Z,10.10
2019-05-13T21:25:55.398Z,10.18
2019-05-13T21:28:22.296Z,9.33
2019-05-13T21:30:51.281Z,9.30
2019-05-13T21:33:18.491Z,9.03
2019-05-13T21:35:46.371Z,8.95
2019-05-13T21:38:13.481Z,7.97
2019-05-13T21:40:41.529Z,7.65
2019-05-13T21:43:08.796Z,7.72
2019-05-13T21:45:35.804Z,7.95
2019-05-13T21:48:03.239Z,7.30
2019-05-13T21:50:36.360Z,7.08
2019-05-13T21:52:59.288Z,6.70
2019-05-13T21:55:26.782Z,5.97
2019-05-13T21:57:53.718Z,5.35
2019-05-13T22:00:25.724Z,5.33
2019-05-13T22:02:52.653Z,4.87
2019-05-13T22:05:22.057Z,5.47
2019-05-13T22:07:48.809Z,6.53
2019-05-13T22:10:16.311Z,5.70
2019-05-13T22:12:43.854Z,6.30
2019-05-13T22:15:11.393Z,6.55
2019-05-13T22:17:38.570Z,5.62
2019-05-13T22:20:06.599Z,7.22
2019-05-13T22:22:33.462Z,5.72
2019-05-13T22:25:01.985Z,5.58
2019-05-13T22:27:29.193Z,5.15
2019-05-13T22:29:57.550Z,5.67
2019-05-13T22:32:25.059Z,4.90
2019-05-13T22:34:52.851Z,4.78
2019-05-13T22:37:20.212Z,5.45
2019-05-13T22:39:47.207Z,5.58
2019-05-13T22:42:14.303Z,5.03
2019-05-13T22:44:41.964Z,4.85
2019-05-13T22:47:13.057Z,5.83
2019-05-13T22:49:37.635Z,5.70
2019-05-13T22:52:04.962Z,6.12
2019-05-13T22:54:31.979Z,6.15
2019-05-13T22:56:59.395Z,6.37
2019-05-13T22:59:26.755Z,5.30
2019-05-13T23:01:59.792Z,4.65
2019-05-13T23:04:26.633Z,4.92
2019-05-13T23:06:53.616Z,5.00
2019-05-13T23:09:21.537Z,4.80
2019-05-13T23:11:50.997Z,4.17
2019-05-13T23:14:17.915Z,4.45
2019-05-13T23:16:45.038Z,5.33
2019-05-13T23:19:12.406Z,4.78
2019-05-13T23:21:41.634Z,4.90
2019-05-13T23:24:08.633Z,5.22
2019-05-13T23:26:35.798Z,5.40
2019-05-13T23:29:03.112Z,8.43
2019-05-13T23:31:29.902Z,8.75
2019-05-13T23:33:56.743Z,7.78
2019-05-13T23:36:31.599Z,6.40
2019-05-13T23:39:00.940Z,4.30
2019-05-13T23:41:28.558Z,4.70
2019-05-13T23:43:55.388Z,5.20
2019-05-13T23:46:22.485Z,4.75
2019-05-13T23:48:51.842Z,5.00
2019-05-13T23:51:18.666Z,5.30
2019-05-13T23:53:45.603Z,4.87
2019-05-13T23:56:12.796Z,4.40
2019-05-13T23:58:41.366Z,4.40
